createdAt,value
2022-11-15T00:00:55.279Z,26.75
2022-11-15T00:03:40.483Z,26.63
2022-11-15T00:06:25.685Z,27.55
2022-11-15T00:09:10.547Z,27.55
2022-11-15T00:11:56.032Z,26.67
2022-11-15T00:14:40.991Z,27.23
2022-11-15T00:17:26.483Z,27.17
2022-11-15T00:20:12.416Z,28.08
2022-11-15T00:22:57.510Z,27.80
2022-11-15T00:25:42.481Z,26.65
2022-11-15T00:28:27.706Z,27.40
2022-11-15T00:31:14.993Z,27.35
2022-11-15T00:34:00.207Z,26.70
2022-11-15T00:36:45.398Z,26.45
2022-11-15T00:39:30.598Z,27.38
2022-11-15T00:42:15.831Z,26.60
2022-11-15T00:45:00.792Z,25.92
2022-11-15T00:47:47.166Z,26.75
2022-11-15T00:50:32.131Z,27.02
2022-11-15T00:53:17.919Z,27.65
2022-11-15T00:56:03.146Z,26.67
2022-11-15T00:58:48.500Z,26.67
2022-11-15T01:01:33.369Z,26.23
2022-11-15T01:04:18.518Z,27.02
2022-11-15T01:07:03.767Z,28.42
2022-11-15T01:09:48.882Z,27.98
2022-11-15T01:12:34.678Z,27.13
2022-11-15T01:15:19.519Z,27.95
2022-11-15T01:18:04.978Z,29.38
2022-11-15T01:20:50.152Z,27.23
2022-11-15T01:23:35.747Z,29.25
2022-11-15T01:26:20.943Z,29.92
2022-11-15T01:29:06.147Z,28.65
2022-11-15T01:31:51.404Z,29.52
2022-11-15T01:34:36.660Z,29.15
2022-11-15T01:37:21.957Z,28.98
2022-11-15T01:40:07.498Z,28.00
2022-11-15T01:42:52.401Z,28.02
2022-11-15T01:45:37.611Z,30.52
2022-11-15T01:48:26.628Z,29.17
2022-11-15T01:51:14.571Z,29.50
2022-11-15T01:54:05.022Z,28.95
2022-11-15T01:57:01.750Z,30.77
2022-11-15T01:59:47.923Z,30.40
2022-11-15T02:02:35.156Z,29.50
2022-11-15T02:05:20.339Z,30.83
2022-11-15T02:08:06.455Z,30.98
2022-11-15T02:10:51.829Z,30.52
2022-11-15T02:13:37.835Z,30.73
2022-11-15T02:16:41.325Z,30.15
2022-11-15T02:19:32.095Z,29.08
2022-11-15T02:22:52.527Z,31.42
2022-11-15T02:26:02.359Z,30.10
2022-11-15T02:29:22.818Z,30.92
2022-11-15T02:32:21.210Z,31.48
2022-11-15T02:35:38.588Z,30.70
2022-11-15T02:38:45.630Z,30.98
2022-11-15T02:41:46.796Z,31.95
2022-11-15T02:44:37.845Z,30.63
2022-11-15T02:47:25.609Z,33.33
2022-11-15T02:50:18.012Z,33.95
2022-11-15T02:53:03.774Z,34.13
2022-11-15T02:55:51.098Z,33.72
2022-11-15T02:58:46.946Z,33.17
2022-11-15T03:01:53.883Z,32.83
2022-11-15T03:04:54.737Z,33.30
2022-11-15T03:07:53.981Z,33.17
2022-11-15T03:10:57.042Z,33.83
2022-11-15T03:14:00.358Z,34.78
2022-11-15T03:17:10.621Z,35.42
2022-11-15T03:19:59.673Z,35.38
2022-11-15T03:22:47.552Z,37.35
2022-11-15T03:25:35.485Z,36.28
2022-11-15T03:28:32.547Z,37.15
2022-11-15T03:31:39.143Z,35.75
2022-11-15T03:34:30.741Z,35.60
2022-11-15T03:37:17.474Z,35.45
2022-11-15T03:40:04.662Z,33.10
2022-11-15T03:43:18.665Z,34.97
2022-11-15T03:46:11.626Z,33.53
2022-11-15T03:49:14.800Z,34.80
2022-11-15T03:52:01.192Z,35.17
2022-11-15T03:54:56.094Z,34.20
2022-11-15T03:57:41.275Z,33.15
2022-11-15T04:00:26.612Z,33.67
2022-11-15T04:03:11.963Z,34.08
2022-11-15T04:05:57.120Z,33.63
2022-11-15T04:08:42.307Z,33.17
2022-11-15T04:11:27.243Z,35.22
2022-11-15T04:14:12.172Z,33.15
2022-11-15T04:16:57.465Z,33.55
2022-11-15T04:20:01.096Z,36.80
2022-11-15T04:23:04.963Z,38.20
2022-11-15T04:25:53.707Z,39.28
2022-11-15T04:29:01.488Z,37.55
2022-11-15T04:31:46.877Z,39.00
2022-11-15T04:34:32.492Z,39.15
2022-11-15T04:37:17.591Z,39.30
2022-11-15T04:40:02.865Z,38.35
2022-11-15T04:42:48.283Z,37.55
2022-11-15T04:45:33.692Z,37.00
2022-11-15T04:48:18.855Z,35.97
2022-11-15T04:51:04.190Z,37.28
2022-11-15T04:53:49.368Z,39.33
2022-11-15T04:56:34.402Z,38.20
2022-11-15T04:59:19.667Z,38.80
2022-11-15T05:02:04.771Z,38.00
2022-11-15T05:04:49.869Z,39.22
2022-11-15T05:07:34.743Z,38.65
2022-11-15T05:10:20.375Z,38.67
2022-11-15T05:13:05.251Z,37.33
2022-11-15T05:15:50.279Z,36.60
2022-11-15T05:18:35.511Z,34.80
2022-11-15T05:21:21.303Z,34.60
2022-11-15T05:24:06.678Z,35.55
2022-11-15T05:26:51.661Z,36.78
2022-11-15T05:29:36.567Z,37.22
2022-11-15T05:32:21.815Z,35.17
2022-11-15T05:35:11.003Z,36.42
2022-11-15T05:37:56.284Z,35.95
2022-11-15T05:40:41.219Z,42.65
2022-11-15T05:43:26.993Z,35.15
2022-11-15T05:46:14.635Z,34.90
2022-11-15T05:49:00.464Z,34.70
2022-11-15T05:51:48.309Z,35.10
2022-11-15T05:54:35.310Z,34.90
2022-11-15T05:57:21.154Z,34.75
2022-11-15T06:00:06.949Z,35.13
2022-11-15T06:02:52.125Z,34.60
2022-11-15T06:05:37.144Z,34.55
2022-11-15T06:08:22.359Z,33.60
2022-11-15T06:11:08.239Z,35.80
2022-11-15T06:13:53.236Z,34.30
2022-11-15T06:16:38.100Z,33.63
2022-11-15T06:19:23.062Z,35.17
2022-11-15T06:22:08.093Z,34.90
2022-11-15T06:24:53.262Z,34.83
2022-11-15T06:27:38.308Z,36.22
2022-11-15T06:30:24.297Z,33.45
2022-11-15T06:33:09.789Z,34.13
2022-11-15T06:35:54.652Z,33.92
2022-11-15T06:38:39.725Z,34.35
2022-11-15T06:41:24.958Z,32.72
2022-11-15T06:44:10.058Z,34.05
2022-11-15T06:46:55.281Z,32.83
2022-11-15T06:49:40.058Z,33.97
2022-11-15T06:52:25.121Z,33.28
2022-11-15T06:55:10.339Z,31.92
2022-11-15T06:57:55.690Z,31.88
2022-11-15T07:00:41.140Z,30.27
2022-11-15T07:03:26.926Z,31.33
2022-11-15T07:06:12.031Z,30.42
2022-11-15T07:08:57.240Z,30.42
2022-11-15T07:11:42.481Z,28.83
2022-11-15T07:14:27.458Z,29.98
2022-11-15T07:17:12.740Z,28.60
2022-11-15T07:19:57.629Z,29.05
2022-11-15T07:22:43.118Z,31.02
2022-11-15T07:25:28.363Z,28.13
2022-11-15T07:28:13.602Z,28.40
2022-11-15T07:30:58.664Z,27.55
2022-11-15T07:33:43.904Z,26.02
2022-11-15T07:36:29.131Z,26.40
2022-11-15T07:39:14.999Z,26.27
2022-11-15T07:42:19.582Z,25.95
2022-11-15T07:45:05.963Z,26.77
2022-11-15T07:47:51.438Z,26.75
2022-11-15T07:50:36.573Z,25.75
2022-11-15T07:53:21.883Z,25.05
2022-11-15T07:56:08.460Z,24.52
2022-11-15T07:58:53.658Z,24.77
2022-11-15T08:01:39.322Z,23.58
2022-11-15T08:04:24.614Z,23.70
2022-11-15T08:07:09.911Z,23.42
2022-11-15T08:09:56.161Z,22.67
2022-11-15T08:12:41.160Z,22.52
2022-11-15T08:15:26.991Z,22.88
2022-11-15T08:18:17.336Z,21.75
2022-11-15T08:21:02.819Z,21.88
2022-11-15T08:23:47.924Z,21.17
2022-11-15T08:26:33.155Z,21.83
2022-11-15T08:29:17.979Z,21.58
2022-11-15T08:32:03.112Z,20.92
2022-11-15T08:34:47.995Z,20.60
2022-11-15T08:37:32.960Z,19.60
2022-11-15T08:40:19.587Z,19.17
2022-11-15T08:43:05.199Z,17.90
2022-11-15T08:45:49.991Z,18.40
2022-11-15T08:48:35.316Z,17.95
2022-11-15T08:51:20.470Z,17.75
2022-11-15T08:54:05.664Z,16.73
2022-11-15T08:56:50.899Z,15.75
2022-11-15T08:59:39.182Z,15.63
2022-11-15T09:02:24.082Z,14.98
2022-11-15T09:05:09.450Z,14.88
2022-11-15T09:07:55.835Z,14.75
2022-11-15T09:10:41.005Z,14.23
2022-11-15T09:13:26.155Z,13.13
2022-11-15T09:16:12.944Z,14.32
2022-11-15T09:18:58.480Z,12.18
2022-11-15T09:21:43.601Z,11.95
2022-11-15T09:24:29.018Z,12.05
2022-11-15T09:27:14.275Z,11.05
2022-11-15T09:29:59.507Z,10.60
2022-11-15T09:32:44.593Z,9.60
2022-11-15T09:35:29.651Z,10.10
2022-11-15T09:38:15.055Z,9.00
2022-11-15T09:41:29.289Z,8.45
2022-11-15T09:44:26.150Z,7.50
2022-11-15T09:47:29.747Z,7.65
2022-11-15T09:50:33.559Z,7.55
2022-11-15T09:53:00.031Z,6.60
2022-11-15T09:55:39.433Z,6.10
2022-11-15T09:58:23.480Z,5.18
2022-11-15T10:00:53.733Z,5.45
2022-11-15T10:03:36.739Z,5.55
2022-11-15T10:06:06.057Z,4.70
2022-11-15T10:08:37.091Z,4.30
2022-11-15T10:11:37.741Z,3.53
2022-11-15T10:14:16.646Z,3.10
2022-11-15T10:17:02.303Z,2.85
2022-11-15T10:19:55.022Z,3.03
2022-11-15T10:22:38.817Z,2.80
2022-11-15T10:25:17.826Z,2.92
2022-11-15T10:27:48.199Z,2.63
2022-11-15T10:30:18.017Z,2.65
2022-11-15T10:32:45.882Z,2.90
2022-11-15T10:35:23.570Z,2.40
2022-11-15T10:37:50.155Z,2.50
2022-11-15T10:40:22.669Z,2.10
2022-11-15T10:43:04.501Z,2.60
2022-11-15T10:45:33.116Z,2.28
2022-11-15T10:48:14.479Z,2.22
2022-11-15T10:50:46.541Z,2.10
2022-11-15T10:53:28.867Z,2.00
2022-11-15T10:55:58.568Z,2.10
2022-11-15T10:58:42.610Z,2.00
2022-11-15T11:01:11.871Z,2.10
2022-11-15T11:03:40.371Z,1.90
2022-11-15T11:06:11.550Z,1.77
2022-11-15T11:08:38.866Z,1.83
2022-11-15T11:11:06.527Z,2.05
2022-11-15T11:13:35.630Z,2.13
2022-11-15T11:16:39.280Z,2.05
2022-11-15T11:19:43.275Z,2.05
2022-11-15T11:22:22.881Z,2.10
2022-11-15T11:24:55.863Z,2.10
2022-11-15T11:27:43.289Z,2.00
2022-11-15T11:30:18.748Z,2.47
2022-11-15T11:33:21.904Z,2.47
2022-11-15T11:36:12.098Z,2.40
2022-11-15T11:39:06.914Z,2.28
2022-11-15T11:41:58.590Z,2.20
2022-11-15T11:44:37.363Z,2.30
2022-11-15T11:47:20.368Z,2.40
2022-11-15T11:50:00.133Z,2.40
2022-11-15T11:52:34.043Z,2.30
2022-11-15T11:55:19.726Z,2.13
2022-11-15T11:57:59.678Z,2.50
2022-11-15T12:00:29.383Z,2.20
2022-11-15T12:03:04.002Z,2.72
2022-11-15T12:05:40.327Z,3.00
2022-11-15T12:08:34.238Z,2.53
2022-11-15T12:11:19.455Z,2.40
2022-11-15T12:13:51.677Z,2.50
2022-11-15T12:16:28.922Z,2.80
2022-11-15T12:18:57.518Z,2.67
2022-11-15T12:21:46.318Z,2.38
2022-11-15T12:24:16.466Z,2.60
2022-11-15T12:26:50.807Z,2.70
2022-11-15T12:29:28.882Z,2.50
2022-11-15T12:32:00.672Z,2.17
2022-11-15T12:37:44.086Z,2.50
2022-11-15T12:40:11.094Z,2.30
2022-11-15T12:42:57.551Z,2.30
2022-11-15T12:45:44.455Z,2.50
2022-11-15T12:48:16.886Z,2.40
2022-11-15T12:50:55.397Z,2.50
2022-11-15T12:53:28.498Z,2.33
2022-11-15T12:56:07.120Z,3.00
2022-11-15T12:58:47.406Z,2.50
2022-11-15T13:01:32.457Z,2.20
2022-11-15T13:04:20.567Z,2.60
2022-11-15T13:06:52.348Z,2.05
2022-11-15T13:12:08.656Z,2.72
2022-11-15T13:14:38.064Z,2.25
2022-11-15T13:17:18.191Z,2.38
2022-11-15T13:19:47.363Z,2.20
2022-11-15T13:22:32.818Z,2.38
2022-11-15T13:25:01.902Z,2.50
2022-11-15T13:27:29.944Z,2.30
2022-11-15T13:29:56.561Z,2.55
2022-11-15T13:32:23.219Z,2.80
2022-11-15T13:34:53.638Z,2.60
2022-11-15T13:37:23.021Z,2.45
2022-11-15T13:39:50.689Z,2.30
2022-11-15T13:42:19.115Z,2.40
2022-11-15T13:45:03.655Z,2.40
2022-11-15T13:47:31.052Z,2.50
2022-11-15T13:49:58.370Z,2.60
2022-11-15T13:52:29.345Z,2.88
2022-11-15T13:55:09.997Z,3.27
2022-11-15T13:57:49.202Z,2.90
2022-11-15T14:00:44.204Z,2.90
2022-11-15T14:03:25.413Z,2.90
2022-11-15T14:06:13.209Z,2.60
2022-11-15T14:08:41.821Z,2.63
2022-11-15T14:11:15.747Z,2.60
2022-11-15T14:13:42.894Z,2.60
2022-11-15T14:16:17.623Z,2.70
2022-11-15T14:18:54.169Z,3.03
2022-11-15T14:21:21.239Z,2.90
2022-11-15T14:23:48.041Z,2.80
2022-11-15T14:26:28.164Z,2.88
2022-11-15T14:28:54.636Z,2.97
2022-11-15T14:31:21.905Z,2.80
2022-11-15T14:33:48.481Z,2.80
2022-11-15T14:36:18.616Z,3.10
2022-11-15T14:38:45.742Z,2.70
2022-11-15T14:41:23.540Z,2.70
2022-11-15T14:43:51.476Z,2.78
2022-11-15T14:46:18.702Z,3.00
2022-11-15T14:48:45.154Z,2.80
2022-11-15T14:51:16.792Z,2.90
2022-11-15T14:53:44.263Z,3.35
2022-11-15T14:56:11.279Z,2.75
2022-11-15T14:58:37.843Z,2.88
2022-11-15T15:01:15.036Z,2.70
2022-11-15T15:03:41.605Z,2.70
2022-11-15T15:06:13.684Z,2.60
2022-11-15T15:08:44.277Z,2.67
2022-11-15T15:11:22.310Z,2.70
2022-11-15T15:13:48.860Z,2.80
2022-11-15T15:16:15.342Z,3.00
2022-11-15T15:18:41.884Z,3.08
2022-11-15T15:21:33.737Z,2.97
2022-11-15T15:24:03.255Z,3.30
2022-11-15T15:26:29.825Z,3.65
2022-11-15T15:28:56.342Z,3.47
2022-11-15T15:31:22.810Z,3.67
2022-11-15T15:33:49.322Z,2.97
2022-11-15T15:36:19.878Z,2.70
2022-11-15T15:38:47.594Z,2.90
2022-11-15T15:41:17.872Z,2.88
2022-11-15T15:43:44.828Z,2.88
2022-11-15T15:46:17.005Z,2.78
2022-11-15T15:51:17.012Z,3.00
2022-11-15T15:53:46.680Z,3.22
2022-11-15T15:56:13.129Z,2.88
2022-11-15T15:58:39.639Z,3.00
2022-11-15T16:01:06.200Z,2.72
2022-11-15T16:03:32.819Z,2.90
2022-11-15T16:05:59.521Z,2.85
2022-11-15T16:08:31.911Z,3.17
2022-11-15T16:11:07.095Z,3.03
2022-11-15T16:13:33.594Z,3.20
2022-11-15T16:16:01.168Z,3.58
2022-11-15T16:18:27.756Z,3.40
2022-11-15T16:20:57.431Z,3.67
2022-11-15T16:23:25.383Z,3.42
2022-11-15T16:25:54.095Z,3.30
2022-11-15T16:28:26.984Z,3.30
2022-11-15T16:31:09.856Z,3.70
2022-11-15T16:33:37.575Z,3.83
2022-11-15T16:36:06.029Z,5.32
2022-11-15T16:38:32.852Z,4.82
2022-11-15T16:40:59.981Z,4.90
2022-11-15T16:43:26.454Z,3.95
2022-11-15T16:45:52.982Z,4.38
2022-11-15T16:48:23.687Z,3.90
2022-11-15T16:50:50.595Z,4.03
2022-11-15T16:53:17.050Z,4.00
2022-11-15T16:55:43.507Z,3.80
2022-11-15T16:58:10.555Z,3.78
2022-11-15T17:00:37.081Z,4.55
2022-11-15T17:03:03.862Z,4.55
2022-11-15T17:05:30.384Z,5.15
2022-11-15T17:07:57.319Z,5.30
2022-11-15T17:10:25.875Z,5.25
2022-11-15T17:12:52.846Z,4.60
2022-11-15T17:15:19.403Z,3.90
2022-11-15T17:17:52.831Z,6.40
2022-11-15T17:20:20.993Z,5.80
2022-11-15T17:22:47.567Z,4.88
2022-11-15T17:25:14.494Z,5.07
2022-11-15T17:27:41.183Z,6.50
2022-11-15T17:30:08.500Z,5.97
2022-11-15T17:32:38.673Z,5.60
2022-11-15T17:35:13.852Z,5.57
2022-11-15T17:37:42.156Z,5.20
2022-11-15T17:40:09.213Z,5.03
2022-11-15T17:42:35.749Z,5.53
2022-11-15T17:45:06.718Z,5.53
2022-11-15T17:47:36.619Z,4.68
2022-11-15T17:50:03.482Z,4.80
2022-11-15T17:52:30.944Z,6.20
2022-11-15T17:54:57.408Z,6.82
2022-11-15T17:57:24.055Z,5.55
2022-11-15T17:59:50.596Z,5.82
2022-11-15T18:02:17.179Z,5.53
2022-11-15T18:04:43.636Z,5.53
2022-11-15T18:07:11.618Z,5.63
2022-11-15T18:09:42.117Z,6.28
2022-11-15T18:12:08.696Z,5.80
2022-11-15T18:14:35.154Z,6.10
2022-11-15T18:17:01.667Z,5.85
2022-11-15T18:19:28.325Z,6.10
2022-11-15T18:21:57.829Z,5.78
2022-11-15T18:24:29.979Z,5.85
2022-11-15T18:26:57.742Z,6.50
2022-11-15T18:29:24.757Z,6.47
2022-11-15T18:31:54.953Z,6.47
2022-11-15T18:34:26.907Z,6.75
2022-11-15T18:36:53.547Z,6.63
2022-11-15T18:39:20.775Z,6.90
2022-11-15T18:41:48.007Z,7.20
2022-11-15T18:44:15.494Z,6.93
2022-11-15T18:46:42.842Z,7.10
2022-11-15T18:49:10.645Z,8.68
2022-11-15T18:51:37.928Z,9.75
2022-11-15T18:54:04.624Z,9.15
2022-11-15T18:56:32.299Z,7.78
2022-11-15T18:59:00.758Z,8.50
2022-11-15T19:01:29.791Z,8.90
2022-11-15T19:03:58.399Z,8.05
2022-11-15T19:06:27.100Z,7.13
2022-11-15T19:08:56.259Z,6.53
2022-11-15T19:11:27.908Z,6.97
2022-11-15T19:13:59.865Z,6.70
2022-11-15T19:16:27.958Z,6.68
2022-11-15T19:18:59.540Z,7.03
2022-11-15T19:21:27.797Z,7.20
2022-11-15T19:23:54.601Z,8.02
2022-11-15T19:26:22.789Z,7.32
2022-11-15T19:28:52.240Z,7.30
2022-11-15T19:31:19.702Z,7.40
2022-11-15T19:33:46.255Z,7.45
2022-11-15T19:36:18.182Z,7.30
2022-11-15T19:38:45.021Z,7.80
2022-11-15T19:41:14.654Z,9.07
2022-11-15T19:43:41.637Z,12.25
2022-11-15T19:46:11.330Z,11.00
2022-11-15T19:48:38.265Z,12.90
2022-11-15T19:51:07.553Z,12.75
2022-11-15T19:53:35.497Z,10.98
2022-11-15T19:56:07.492Z,10.05
2022-11-15T20:01:07.881Z,9.63
2022-11-15T20:03:36.070Z,9.50
2022-11-15T20:06:08.646Z,9.02
2022-11-15T20:08:36.340Z,9.10
2022-11-15T20:11:04.297Z,7.90
2022-11-15T20:13:31.442Z,9.45
2022-11-15T20:15:58.544Z,8.73
2022-11-15T20:18:26.038Z,8.90
2022-11-15T20:20:52.554Z,8.73
2022-11-15T20:23:19.024Z,9.13
2022-11-15T20:25:47.034Z,9.73
2022-11-15T20:28:19.339Z,9.68
2022-11-15T20:30:47.120Z,9.70
2022-11-15T20:33:14.663Z,10.05
2022-11-15T20:35:41.188Z,10.10
2022-11-15T20:38:08.113Z,11.40
2022-11-15T20:40:34.951Z,11.57
2022-11-15T20:43:01.958Z,10.70
2022-11-15T20:45:28.468Z,10.65
2022-11-15T20:47:56.247Z,11.68
2022-11-15T20:50:41.690Z,11.85
2022-11-15T20:53:10.487Z,11.70
2022-11-15T20:55:44.931Z,11.88
2022-11-15T20:58:11.612Z,11.93
2022-11-15T21:00:38.219Z,12.02
2022-11-15T21:03:06.750Z,12.80
2022-11-15T21:05:44.331Z,12.13
2022-11-15T21:08:12.426Z,12.70
2022-11-15T21:10:59.254Z,12.57
2022-11-15T21:13:26.687Z,12.02
2022-11-15T21:15:57.587Z,12.13
2022-11-15T21:18:24.401Z,11.50
2022-11-15T21:20:52.064Z,11.48
2022-11-15T21:23:18.514Z,11.80
2022-11-15T21:25:51.987Z,11.88
2022-11-15T21:28:18.877Z,11.05
2022-11-15T21:30:56.525Z,11.13
2022-11-15T21:33:23.856Z,11.00
2022-11-15T21:35:51.421Z,11.60
2022-11-15T21:38:18.163Z,11.77
2022-11-15T21:40:44.635Z,11.25
2022-11-15T21:43:11.150Z,11.25
2022-11-15T21:45:38.557Z,11.85
2022-11-15T21:48:05.486Z,11.30
2022-11-15T21:50:32.014Z,11.20
2022-11-15T21:52:58.483Z,11.13
2022-11-15T21:55:24.934Z,11.32
2022-11-15T21:57:51.422Z,10.90
2022-11-15T22:00:37.181Z,11.10
2022-11-15T22:03:03.795Z,10.93
2022-11-15T22:05:30.283Z,11.32
2022-11-15T22:07:56.740Z,10.35
2022-11-15T22:10:23.210Z,10.70
2022-11-15T22:12:49.657Z,10.10
2022-11-15T22:15:16.220Z,10.52
2022-11-15T22:17:57.735Z,10.85
2022-11-15T22:23:10.743Z,10.23
2022-11-15T22:25:37.206Z,10.45
2022-11-15T22:28:03.701Z,11.43
2022-11-15T22:30:30.176Z,10.82
2022-11-15T22:32:56.655Z,10.38
2022-11-15T22:35:23.117Z,11.25
2022-11-15T22:37:49.578Z,11.07
2022-11-15T22:40:16.228Z,10.70
2022-11-15T22:42:42.669Z,10.43
2022-11-15T22:45:09.472Z,10.73
2022-11-15T22:47:35.938Z,10.63
2022-11-15T22:50:02.491Z,10.48
2022-11-15T22:52:28.958Z,10.77
2022-11-15T22:54:55.423Z,10.63
2022-11-15T22:57:21.924Z,10.73
2022-11-15T22:59:48.461Z,10.38
2022-11-15T23:02:14.991Z,11.20
2022-11-15T23:04:41.440Z,10.95
2022-11-15T23:07:07.953Z,9.98
2022-11-15T23:09:34.503Z,10.82
2022-11-15T23:12:19.383Z,10.68
2022-11-15T23:14:45.871Z,10.55
2022-11-15T23:17:12.523Z,10.68
2022-11-15T23:19:39.046Z,10.10
2022-11-15T23:22:24.149Z,10.00
2022-11-15T23:24:52.430Z,10.50
2022-11-15T23:27:20.537Z,10.48
2022-11-15T23:30:06.017Z,11.02
2022-11-15T23:32:51.365Z,10.05
2022-11-15T23:35:17.879Z,10.55
2022-11-15T23:37:44.368Z,10.45
2022-11-15T23:40:11.623Z,10.02
2022-11-15T23:42:38.141Z,10.95
2022-11-15T23:45:05.004Z,10.35
2022-11-15T23:47:31.478Z,9.82
2022-11-15T23:49:57.966Z,10.60
2022-11-15T23:52:25.238Z,10.50
2022-11-15T23:54:51.695Z,9.90
2022-11-15T23:57:18.196Z,10.40
2022-11-15T23:59:44.695Z,10.15
